createdAt,value
2018-04-24T00:01:19.465Z,99.90
2018-04-24T00:03:47.095Z,99.90
2018-04-24T00:06:15.491Z,99.90
2018-04-24T00:08:43.129Z,99.90
2018-04-24T00:11:11.513Z,99.90
2018-04-24T00:13:39.913Z,99.90
2018-04-24T00:16:07.524Z,99.90
2018-04-24T00:18:35.160Z,99.90
2018-04-24T00:21:03.955Z,99.90
2018-04-24T00:23:31.611Z,99.90
2018-04-24T00:25:59.243Z,99.90
2018-04-24T00:28:26.834Z,99.90
2018-04-24T00:30:54.477Z,99.90
2018-04-24T00:33:22.094Z,99.90
2018-04-24T00:35:50.601Z,99.90
2018-04-24T00:38:18.214Z,99.90
2018-04-24T00:40:45.842Z,99.90
2018-04-24T00:43:13.448Z,99.90
2018-04-24T00:45:41.076Z,99.90
2018-04-24T00:48:08.692Z,99.90
2018-04-24T00:50:37.095Z,99.90
2018-04-24T00:53:16.548Z,99.90
2018-04-24T00:55:44.177Z,99.90
2018-04-24T00:58:11.784Z,99.90
2018-04-24T01:00:39.431Z,99.90
2018-04-24T01:03:07.044Z,99.90
2018-04-24T01:05:35.452Z,99.90
2018-04-24T01:08:04.409Z,99.90
2018-04-24T01:10:33.870Z,99.90
2018-04-24T01:13:01.500Z,99.90
2018-04-24T01:15:29.101Z,99.90
2018-04-24T01:17:56.745Z,99.90
2018-04-24T01:20:24.371Z,99.90
2018-04-24T01:22:52.202Z,99.90
2018-04-24T01:25:19.885Z,99.90
2018-04-24T01:27:47.476Z,99.90
2018-04-24T01:30:15.088Z,99.90
2018-04-24T01:32:42.721Z,99.90
2018-04-24T01:35:10.328Z,99.90
2018-04-24T01:37:38.745Z,99.90
2018-04-24T01:40:06.345Z,99.90
2018-04-24T01:42:35.153Z,99.90
2018-04-24T01:45:03.526Z,99.90
2018-04-24T01:47:31.945Z,99.90
2018-04-24T01:49:59.549Z,99.90
2018-04-24T01:52:27.191Z,99.90
2018-04-24T01:54:54.790Z,99.90
2018-04-24T01:57:23.191Z,99.90
2018-04-24T01:59:50.790Z,99.90
2018-04-24T02:02:18.409Z,99.90
2018-04-24T02:04:46.048Z,99.90
2018-04-24T02:07:13.683Z,99.90
2018-04-24T02:09:41.340Z,99.90
2018-04-24T02:12:08.948Z,99.90
2018-04-24T02:14:36.580Z,99.90
2018-04-24T02:17:05.507Z,99.90
2018-04-24T02:19:33.786Z,99.90
2018-04-24T02:22:01.406Z,99.90
2018-04-24T02:24:29.052Z,99.90
2018-04-24T02:26:56.676Z,99.90
2018-04-24T02:29:24.317Z,99.90
2018-04-24T02:31:51.949Z,99.90
2018-04-24T02:34:19.574Z,99.90
2018-04-24T02:36:47.210Z,99.90
2018-04-24T02:39:14.869Z,99.90
2018-04-24T02:41:42.491Z,99.90
2018-04-24T02:44:10.908Z,99.90
2018-04-24T02:46:38.512Z,99.90
2018-04-24T02:49:06.156Z,99.90
2018-04-24T02:51:34.500Z,99.90
2018-04-24T02:54:02.165Z,99.90
2018-04-24T02:56:29.783Z,99.90
2018-04-24T02:58:57.420Z,99.90
2018-04-24T03:01:25.052Z,99.90
2018-04-24T03:03:52.698Z,99.90
2018-04-24T03:06:20.312Z,99.90
2018-04-24T03:08:47.953Z,99.90
2018-04-24T03:11:15.555Z,99.90
2018-04-24T03:13:43.949Z,99.90
2018-04-24T03:16:12.328Z,99.90
2018-04-24T03:18:40.717Z,99.90
2018-04-24T03:21:08.374Z,99.90
2018-04-24T03:23:35.996Z,99.90
2018-04-24T03:26:05.112Z,99.90
2018-04-24T03:28:33.507Z,99.90
2018-04-24T03:31:01.176Z,99.90
2018-04-24T03:33:28.796Z,99.90
2018-04-24T03:35:56.443Z,99.90
2018-04-24T03:38:24.048Z,99.90
2018-04-24T03:40:52.441Z,99.90
2018-04-24T03:43:20.049Z,99.90
2018-04-24T03:45:47.696Z,99.90
2018-04-24T03:48:15.310Z,99.90
2018-04-24T03:50:42.956Z,99.90
2018-04-24T03:53:11.321Z,99.90
2018-04-24T03:55:38.959Z,99.90
2018-04-24T03:58:06.576Z,99.90
2018-04-24T04:00:35.467Z,99.90
2018-04-24T04:03:04.534Z,99.90
2018-04-24T04:05:32.955Z,99.90
2018-04-24T04:08:01.345Z,99.90
2018-04-24T04:10:28.990Z,99.90
2018-04-24T04:12:56.599Z,99.90
2018-04-24T04:15:24.246Z,99.90
2018-04-24T04:21:05.400Z,99.90
2018-04-24T04:23:44.794Z,99.90
2018-04-24T04:26:12.426Z,99.90
2018-04-24T04:28:40.036Z,99.90
2018-04-24T04:31:08.452Z,99.90
2018-04-24T04:33:36.077Z,99.90
2018-04-24T04:36:04.692Z,99.90
2018-04-24T04:38:32.981Z,99.90
2018-04-24T04:41:00.628Z,99.90
2018-04-24T04:43:28.245Z,99.90
2018-04-24T04:45:56.645Z,99.90
2018-04-24T04:48:24.259Z,99.90
2018-04-24T04:50:51.872Z,99.90
2018-04-24T04:53:19.504Z,99.90
2018-04-24T04:55:47.898Z,99.90
2018-04-24T04:58:15.557Z,99.90
2018-04-24T05:00:43.941Z,99.90
2018-04-24T05:03:12.346Z,99.90
2018-04-24T05:05:39.964Z,99.90
2018-04-24T05:08:08.368Z,99.90
2018-04-24T05:10:35.970Z,99.90
2018-04-24T05:13:03.608Z,99.90
2018-04-24T05:15:31.227Z,99.90
2018-04-24T05:17:59.640Z,99.90
2018-04-24T05:20:27.255Z,99.90
2018-04-24T05:22:54.878Z,99.90
2018-04-24T05:25:22.493Z,99.90
2018-04-24T05:27:50.905Z,99.90
2018-04-24T05:30:18.518Z,99.90
2018-04-24T05:32:46.939Z,99.90
2018-04-24T05:35:14.561Z,99.90
2018-04-24T05:37:42.972Z,99.90
2018-04-24T05:40:10.577Z,99.90
2018-04-24T05:42:38.202Z,99.90
2018-04-24T05:45:05.832Z,99.90
2018-04-24T05:47:35.492Z,99.90
2018-04-24T05:50:04.420Z,99.90
2018-04-24T05:52:33.906Z,99.90
2018-04-24T05:55:01.510Z,99.90
2018-04-24T05:57:29.152Z,99.90
2018-04-24T05:59:57.542Z,99.90
2018-04-24T06:02:25.194Z,99.90
2018-04-24T06:04:53.585Z,99.90
2018-04-24T06:07:21.264Z,99.90
2018-04-24T06:09:48.893Z,99.90
2018-04-24T06:12:17.290Z,99.90
2018-04-24T06:14:44.941Z,99.90
2018-04-24T06:17:12.568Z,99.90
2018-04-24T06:19:40.204Z,99.90
2018-04-24T06:22:07.845Z,99.90
2018-04-24T06:24:35.495Z,99.90
2018-04-24T06:27:04.757Z,99.90
2018-04-24T06:29:34.077Z,99.90
2018-04-24T06:32:03.010Z,99.90
2018-04-24T06:34:30.665Z,99.90
2018-04-24T06:36:58.301Z,99.90
2018-04-24T06:39:25.953Z,99.90
2018-04-24T06:41:54.352Z,99.90
2018-04-24T06:44:22.013Z,99.90
2018-04-24T06:46:49.637Z,99.90
2018-04-24T06:49:18.055Z,99.90
2018-04-24T06:51:45.677Z,99.90
2018-04-24T06:54:14.091Z,99.90
2018-04-24T06:56:41.714Z,99.90
2018-04-24T06:59:10.132Z,99.90
2018-04-24T07:01:37.773Z,99.90
2018-04-24T07:04:05.416Z,99.90
2018-04-24T07:06:34.760Z,99.90
2018-04-24T07:09:03.052Z,99.90
2018-04-24T07:11:30.672Z,99.90
2018-04-24T07:13:58.320Z,99.90
2018-04-24T07:16:26.697Z,99.90
2018-04-24T07:18:55.105Z,99.90
2018-04-24T07:21:22.716Z,99.90
2018-04-24T07:23:50.355Z,99.90
2018-04-24T07:26:17.964Z,99.90
2018-04-24T07:28:46.373Z,99.90
2018-04-24T07:31:13.986Z,99.90
2018-04-24T07:33:42.362Z,99.90
2018-04-24T07:36:10.014Z,99.90
2018-04-24T07:38:37.631Z,99.90
2018-04-24T07:41:05.292Z,99.90
2018-04-24T07:43:34.768Z,99.80
2018-04-24T07:46:03.990Z,99.90
2018-04-24T07:48:31.617Z,99.90
2018-04-24T07:51:00.020Z,99.90
2018-04-24T07:53:27.638Z,99.90
2018-04-24T07:55:55.283Z,99.90
2018-04-24T07:58:22.897Z,99.90
2018-04-24T08:00:51.474Z,99.90
2018-04-24T08:03:19.099Z,99.90
2018-04-24T08:05:46.735Z,99.70
2018-04-24T08:08:14.355Z,99.90
2018-04-24T08:10:42.005Z,99.90
2018-04-24T08:13:10.402Z,99.40
2018-04-24T08:15:38.047Z,99.40
2018-04-24T08:18:06.441Z,99.90
2018-04-24T08:20:34.978Z,99.90
2018-04-24T08:23:02.995Z,99.60
2018-04-24T08:25:30.641Z,99.20
2018-04-24T08:27:59.013Z,99.10
2018-04-24T08:30:27.430Z,98.40
2018-04-24T08:32:55.038Z,98.10
2018-04-24T08:35:22.681Z,98.50
2018-04-24T08:37:50.297Z,98.30
2018-04-24T08:40:17.944Z,98.50
2018-04-24T08:42:45.573Z,98.30
2018-04-24T08:45:13.205Z,96.40
2018-04-24T08:47:40.821Z,95.90
2018-04-24T08:50:09.245Z,96.50
2018-04-24T08:52:36.867Z,96.50
2018-04-24T08:55:05.252Z,94.40
2018-04-24T08:57:33.881Z,94.40
2018-04-24T09:00:01.517Z,94.10
2018-04-24T09:02:29.174Z,94.00
2018-04-24T09:04:56.803Z,94.20
2018-04-24T09:07:25.206Z,94.20
2018-04-24T09:09:52.829Z,94.20
2018-04-24T09:12:21.252Z,92.40
2018-04-24T09:14:48.870Z,92.30
2018-04-24T09:17:17.302Z,91.80
2018-04-24T09:19:44.932Z,91.90
2018-04-24T09:22:12.576Z,91.10
2018-04-24T09:24:40.956Z,91.10
2018-04-24T09:27:09.463Z,90.80
2018-04-24T09:29:37.028Z,90.40
2018-04-24T09:32:04.684Z,89.30
2018-04-24T09:34:32.982Z,90.30
2018-04-24T09:37:00.638Z,88.20
2018-04-24T09:39:28.269Z,89.80
2018-04-24T09:41:55.910Z,89.40
2018-04-24T09:44:24.278Z,86.20
2018-04-24T09:46:51.931Z,86.10
2018-04-24T09:49:19.563Z,88.40
2018-04-24T09:51:47.235Z,84.50
2018-04-24T09:54:14.856Z,84.10
2018-04-24T09:56:42.568Z,83.30
2018-04-24T09:59:10.153Z,88.30
2018-04-24T10:01:38.566Z,85.60
2018-04-24T10:04:06.242Z,85.50
2018-04-24T10:06:34.633Z,82.40
2018-04-24T10:09:03.109Z,82.40
2018-04-24T10:11:30.781Z,83.90
2018-04-24T10:13:58.421Z,86.90
2018-04-24T10:16:26.038Z,87.10
2018-04-24T10:18:54.447Z,88.20
2018-04-24T10:21:22.836Z,90.00
2018-04-24T10:23:50.481Z,90.00
2018-04-24T10:26:18.106Z,90.00
2018-04-24T10:28:46.534Z,90.30
2018-04-24T10:31:14.148Z,90.30
2018-04-24T10:33:42.612Z,90.10
2018-04-24T10:36:10.231Z,90.00
2018-04-24T10:38:37.873Z,90.60
2018-04-24T10:41:05.489Z,90.60
2018-04-24T10:43:33.934Z,91.20
2018-04-24T10:46:01.551Z,91.60
2018-04-24T10:48:29.981Z,92.40
2018-04-24T10:50:57.595Z,92.40
2018-04-24T10:53:26.008Z,93.60
2018-04-24T10:55:53.620Z,93.60
2018-04-24T10:58:21.250Z,93.60
2018-04-24T11:00:48.868Z,93.40
2018-04-24T11:03:17.265Z,93.30
2018-04-24T11:05:44.888Z,93.20
2018-04-24T11:08:13.296Z,93.80
2018-04-24T11:10:40.917Z,93.50
2018-04-24T11:13:08.566Z,93.40
2018-04-24T11:15:36.183Z,93.20
2018-04-24T11:18:04.374Z,95.20
2018-04-24T11:20:31.991Z,95.00
2018-04-24T11:23:00.426Z,94.30
2018-04-24T11:25:28.057Z,94.40
2018-04-24T11:27:55.694Z,95.20
2018-04-24T11:30:24.168Z,93.00
2018-04-24T11:32:51.767Z,93.00
2018-04-24T11:35:19.425Z,93.70
2018-04-24T11:37:47.049Z,93.10
2018-04-24T11:40:15.463Z,93.70
2018-04-24T11:42:43.090Z,93.70
2018-04-24T11:45:11.552Z,94.20
2018-04-24T11:47:39.232Z,94.20
2018-04-24T11:50:06.825Z,94.10
2018-04-24T11:52:35.357Z,95.60
2018-04-24T11:55:03.041Z,97.50
2018-04-24T11:57:31.424Z,96.80
2018-04-24T11:59:59.812Z,97.00
2018-04-24T12:02:27.421Z,97.00
2018-04-24T12:04:55.055Z,95.20
2018-04-24T12:07:22.667Z,95.10
2018-04-24T12:09:50.283Z,95.20
2018-04-24T12:12:17.903Z,94.80
2018-04-24T12:14:45.557Z,96.40
2018-04-24T12:17:13.941Z,95.30
2018-04-24T12:19:42.350Z,96.70
2018-04-24T12:22:09.973Z,96.70
2018-04-24T12:24:38.379Z,96.80
2018-04-24T12:27:06.006Z,96.70
2018-04-24T12:29:35.002Z,95.00
2018-04-24T12:32:04.408Z,95.80
2018-04-24T12:34:33.869Z,95.10
2018-04-24T12:37:01.503Z,95.10
2018-04-24T12:39:29.145Z,94.70
2018-04-24T12:41:56.761Z,95.50
2018-04-24T12:44:24.423Z,95.80
2018-04-24T12:46:52.035Z,96.10
2018-04-24T12:49:19.650Z,96.20
2018-04-24T12:51:47.369Z,95.10
2018-04-24T12:54:14.941Z,96.20
2018-04-24T12:56:42.580Z,96.00
2018-04-24T12:59:10.280Z,97.70
2018-04-24T13:01:37.880Z,97.60
2018-04-24T13:04:06.320Z,98.40
2018-04-24T13:06:34.079Z,98.40
2018-04-24T13:09:01.693Z,98.30
2018-04-24T13:11:29.338Z,99.40
2018-04-24T13:13:57.733Z,99.80
2018-04-24T13:16:26.134Z,99.90
2018-04-24T13:18:53.757Z,99.90
2018-04-24T13:21:22.167Z,99.90
2018-04-24T13:23:49.783Z,99.90
2018-04-24T13:26:17.404Z,99.90
2018-04-24T13:28:45.021Z,99.90
2018-04-24T13:31:13.440Z,99.90
2018-04-24T13:33:41.063Z,99.90
2018-04-24T13:36:09.511Z,99.90
2018-04-24T13:38:37.137Z,99.90
2018-04-24T13:41:04.791Z,99.90
2018-04-24T13:43:32.969Z,99.90
2018-04-24T13:46:00.598Z,99.90
2018-04-24T13:48:29.006Z,99.90
2018-04-24T13:50:56.634Z,99.90
2018-04-24T13:53:25.009Z,99.90
2018-04-24T13:55:53.417Z,99.90
2018-04-24T13:58:21.038Z,99.90
2018-04-24T14:00:48.698Z,99.90
2018-04-24T14:03:17.141Z,99.90
2018-04-24T14:05:44.735Z,99.90
2018-04-24T14:08:12.374Z,99.90
2018-04-24T14:10:39.985Z,99.90
2018-04-24T14:13:07.625Z,99.90
2018-04-24T14:15:36.010Z,99.90
2018-04-24T14:18:05.693Z,99.90
2018-04-24T14:20:34.405Z,99.90
2018-04-24T14:23:03.924Z,99.90
2018-04-24T14:25:31.547Z,99.90
2018-04-24T14:27:59.180Z,99.90
2018-04-24T14:30:26.801Z,99.90
2018-04-24T14:32:54.432Z,99.90
2018-04-24T14:35:22.059Z,99.90
2018-04-24T14:37:49.684Z,99.90
2018-04-24T14:40:17.312Z,99.90
2018-04-24T14:42:45.020Z,99.90
2018-04-24T14:45:13.379Z,99.90
2018-04-24T14:47:41.768Z,99.90
2018-04-24T14:50:09.370Z,99.90
2018-04-24T14:52:37.009Z,99.90
2018-04-24T14:55:04.640Z,99.90
2018-04-24T14:57:34.202Z,99.90
2018-04-24T15:00:01.823Z,99.90
2018-04-24T15:02:29.463Z,99.90
2018-04-24T15:04:57.848Z,99.90
2018-04-24T15:07:25.499Z,99.90
2018-04-24T15:09:53.881Z,99.90
2018-04-24T15:12:22.288Z,99.90
2018-04-24T15:14:49.891Z,99.90
2018-04-24T15:17:17.526Z,99.90
2018-04-24T15:19:45.178Z,99.90
2018-04-24T15:22:12.774Z,99.90
2018-04-24T15:24:40.404Z,99.90
2018-04-24T15:27:08.029Z,99.90
2018-04-24T15:29:35.673Z,99.90
2018-04-24T15:32:04.184Z,99.90
2018-04-24T15:34:31.801Z,99.90
2018-04-24T15:36:59.426Z,99.90
2018-04-24T15:39:27.070Z,99.90
2018-04-24T15:41:54.689Z,99.90
2018-04-24T15:44:22.325Z,99.90
2018-04-24T15:46:49.949Z,99.90
2018-04-24T15:49:17.594Z,99.90
2018-04-24T15:51:45.220Z,99.90
2018-04-24T15:54:12.870Z,99.90
2018-04-24T15:56:40.467Z,99.90
2018-04-24T15:59:08.869Z,99.90
2018-04-24T16:01:36.490Z,99.90
2018-04-24T16:04:04.908Z,99.90
2018-04-24T16:06:33.002Z,99.90
2018-04-24T16:09:00.650Z,99.90
2018-04-24T16:11:28.265Z,99.90
2018-04-24T16:13:56.670Z,99.90
2018-04-24T16:16:24.288Z,99.90
2018-04-24T16:18:51.937Z,99.90
2018-04-24T16:21:19.552Z,99.90
2018-04-24T16:23:47.177Z,99.90
2018-04-24T16:26:14.792Z,99.90
2018-04-24T16:28:42.439Z,99.90
2018-04-24T16:31:10.060Z,99.90
2018-04-24T16:33:37.724Z,99.90
2018-04-24T16:36:05.342Z,99.90
2018-04-24T16:38:32.986Z,99.90
2018-04-24T16:41:00.696Z,99.90
2018-04-24T16:43:28.285Z,99.90
2018-04-24T16:45:55.961Z,99.90
2018-04-24T16:48:23.587Z,99.90
2018-04-24T16:50:52.024Z,99.90
2018-04-24T16:53:19.631Z,99.90
2018-04-24T16:55:47.263Z,99.90
2018-04-24T16:58:14.891Z,99.90
2018-04-24T17:00:42.529Z,99.90
2018-04-24T17:03:10.155Z,99.90
2018-04-24T17:05:37.797Z,99.90
2018-04-24T17:08:05.422Z,99.90
2018-04-24T17:10:33.768Z,99.90
2018-04-24T17:13:02.192Z,99.90
2018-04-24T17:15:30.792Z,99.90
2018-04-24T17:17:58.414Z,99.90
2018-04-24T17:20:26.022Z,99.90
2018-04-24T17:22:53.669Z,99.90
2018-04-24T17:25:21.301Z,99.90
2018-04-24T17:27:49.018Z,99.90
2018-04-24T17:30:16.626Z,99.90
2018-04-24T17:32:44.269Z,99.90
2018-04-24T17:35:12.652Z,99.90
2018-04-24T17:37:41.017Z,99.90
2018-04-24T17:40:09.416Z,99.90
2018-04-24T17:42:37.028Z,99.90
2018-04-24T17:45:04.663Z,99.90
2018-04-24T17:47:33.358Z,99.90
2018-04-24T17:50:01.010Z,99.90
2018-04-24T17:52:28.625Z,99.90
2018-04-24T17:54:57.031Z,99.90
2018-04-24T17:57:24.657Z,99.90
2018-04-24T17:59:52.291Z,99.90
2018-04-24T18:02:19.897Z,99.90
2018-04-24T18:04:48.315Z,99.90
2018-04-24T18:07:15.937Z,99.90
2018-04-24T18:09:44.330Z,99.90
2018-04-24T18:12:11.944Z,99.90
2018-04-24T18:14:39.602Z,99.90
2018-04-24T18:17:07.225Z,99.90
2018-04-24T18:19:34.885Z,99.90
2018-04-24T18:22:02.951Z,99.90
2018-04-24T18:24:30.576Z,99.90
2018-04-24T18:26:58.986Z,99.90
2018-04-24T18:29:26.617Z,99.90
2018-04-24T18:31:55.025Z,99.90
2018-04-24T18:34:22.645Z,99.90
2018-04-24T18:36:50.293Z,99.90
2018-04-24T18:39:17.910Z,99.90
2018-04-24T18:41:45.551Z,99.90
2018-04-24T18:44:13.927Z,99.90
2018-04-24T18:46:42.353Z,99.90
2018-04-24T18:49:09.957Z,99.90
2018-04-24T18:51:38.368Z,99.90
2018-04-24T18:54:05.976Z,99.90
2018-04-24T18:56:33.611Z,99.90
2018-04-24T18:59:01.253Z,99.90
2018-04-24T19:01:28.897Z,99.90
2018-04-24T19:03:56.509Z,99.90
2018-04-24T19:06:24.168Z,99.90
2018-04-24T19:08:51.786Z,99.90
2018-04-24T19:11:19.418Z,99.90
2018-04-24T19:13:47.846Z,99.90
2018-04-24T19:16:15.470Z,99.90
2018-04-24T19:18:49.572Z,99.90
2018-04-24T19:21:17.959Z,99.90
2018-04-24T19:23:45.681Z,99.90
2018-04-24T19:26:13.241Z,99.90
2018-04-24T19:28:40.888Z,99.90
2018-04-24T19:31:14.106Z,99.90
2018-04-24T19:33:41.740Z,99.90
2018-04-24T19:36:09.365Z,99.90
2018-04-24T19:38:36.999Z,99.90
2018-04-24T19:41:11.031Z,99.90
2018-04-24T19:43:38.697Z,99.90
2018-04-24T19:46:06.317Z,99.90
2018-04-24T19:48:40.955Z,99.90
2018-04-24T19:51:08.573Z,99.90
2018-04-24T19:53:36.225Z,99.90
2018-04-24T19:56:05.157Z,99.90
2018-04-24T19:58:33.943Z,99.90
2018-04-24T20:01:01.576Z,99.90
2018-04-24T20:03:29.228Z,99.90
2018-04-24T20:05:56.839Z,99.90
2018-04-24T20:08:25.255Z,99.90
2018-04-24T20:10:52.882Z,99.90
2018-04-24T20:13:21.257Z,99.90
2018-04-24T20:15:49.667Z,99.90
2018-04-24T20:18:17.296Z,99.90
2018-04-24T20:20:45.702Z,99.90
2018-04-24T20:23:13.333Z,99.90
2018-04-24T20:25:41.754Z,99.90
2018-04-24T20:28:09.381Z,99.90
2018-04-24T20:30:37.787Z,99.90
2018-04-24T20:33:05.409Z,99.90
2018-04-24T20:35:34.340Z,99.90
2018-04-24T20:38:01.964Z,99.90
2018-04-24T20:40:30.444Z,99.90
2018-04-24T20:42:58.835Z,99.90
2018-04-24T20:45:27.233Z,99.90
2018-04-24T20:47:54.893Z,99.90
2018-04-24T20:50:22.528Z,99.90
2018-04-24T20:52:50.926Z,99.90
2018-04-24T20:55:18.530Z,99.90
2018-04-24T20:57:46.177Z,99.90
2018-04-24T21:00:13.807Z,99.90
2018-04-24T21:02:41.448Z,99.90
2018-04-24T21:05:09.837Z,99.90
2018-04-24T21:07:38.255Z,99.90
2018-04-24T21:10:05.875Z,99.90
2018-04-24T21:12:34.450Z,99.90
2018-04-24T21:15:04.022Z,99.90
2018-04-24T21:17:31.659Z,99.90
2018-04-24T21:19:59.271Z,99.90
2018-04-24T21:22:27.757Z,99.90
2018-04-24T21:24:56.153Z,99.90
2018-04-24T21:27:23.828Z,99.90
2018-04-24T21:29:51.449Z,99.90
2018-04-24T21:32:19.858Z,99.90
2018-04-24T21:34:47.504Z,99.90
2018-04-24T21:37:15.892Z,99.90
2018-04-24T21:39:43.546Z,99.90
2018-04-24T21:42:11.158Z,99.90
2018-04-24T21:44:38.807Z,99.90
2018-04-24T21:47:06.428Z,99.90
2018-04-24T21:49:34.827Z,99.90
2018-04-24T21:52:03.024Z,99.90
2018-04-24T21:54:30.673Z,99.90
2018-04-24T21:56:58.292Z,99.90
2018-04-24T21:59:26.705Z,99.90
2018-04-24T22:01:54.331Z,99.90
2018-04-24T22:04:22.757Z,99.90
2018-04-24T22:06:50.384Z,99.90
2018-04-24T22:09:18.037Z,99.90
2018-04-24T22:11:45.692Z,99.90
2018-04-24T22:14:14.128Z,99.90
2018-04-24T22:16:41.739Z,99.90
2018-04-24T22:19:10.130Z,99.90
2018-04-24T22:21:37.804Z,99.90
2018-04-24T22:24:05.410Z,99.90
2018-04-24T22:26:33.794Z,99.90
2018-04-24T22:29:01.419Z,99.90
2018-04-24T22:31:29.066Z,99.90
2018-04-24T22:33:56.685Z,99.90
2018-04-24T22:36:25.108Z,99.90
2018-04-24T22:38:52.725Z,99.90
2018-04-24T22:41:21.124Z,99.90
2018-04-24T22:43:48.762Z,99.90
2018-04-24T22:46:17.172Z,99.90
2018-04-24T22:48:45.621Z,99.90
2018-04-24T22:51:14.048Z,99.90
2018-04-24T22:53:42.430Z,99.90
2018-04-24T22:56:10.084Z,99.90
2018-04-24T22:58:37.689Z,99.90
2018-04-24T23:01:05.355Z,99.90
2018-04-24T23:03:33.001Z,99.90
2018-04-24T23:06:00.633Z,99.90
2018-04-24T23:08:28.286Z,99.90
2018-04-24T23:11:07.644Z,99.90
2018-04-24T23:13:47.007Z,99.90
2018-04-24T23:16:26.593Z,99.90
2018-04-24T23:19:05.944Z,99.90
2018-04-24T23:21:34.107Z,99.90
2018-04-24T23:24:01.733Z,99.90
2018-04-24T23:26:30.106Z,99.90
2018-04-24T23:28:58.526Z,99.90
2018-04-24T23:31:26.916Z,99.90
2018-04-24T23:33:54.564Z,99.90
2018-04-24T23:36:22.194Z,99.90
2018-04-24T23:38:49.848Z,99.90
2018-04-24T23:41:18.230Z,99.90
2018-04-24T23:43:46.622Z,99.90
2018-04-24T23:46:14.231Z,99.90
2018-04-24T23:48:41.877Z,99.90
2018-04-24T23:51:09.492Z,99.90
2018-04-24T23:53:37.881Z,99.90
2018-04-24T23:56:05.531Z,99.90
2018-04-24T23:58:35.238Z,99.90
